Time;durP1;ratioP1;P1;durP2;ratioP2;P2;SDS_P1;SDS_P2;PMS_P1;PMS_P2;Temp;Humidity;BMP_temperature;BMP_pressure;BME280_temperature;BME280_humidity;BME280_pressure;Samples;Min_cycle;Max_cycle;Signal;HPM_P1;HPM_P2
2022/11/21 00:00:48;;;;;;;59.47;24.67;;;;;;;;;;5055452;28;20211;-42
2022/11/21 00:03:15;;;;;;;61.67;25.67;;;;;;;;;;5054804;28;20208;-41
2022/11/21 00:05:44;;;;;;;69.17;26.57;;;;;;;;;;5055388;28;20200;-41
2022/11/21 00:08:14;;;;;;;61.77;25.83;;;;;;;;;;5055266;28;20223;-42
2022/11/21 00:10:41;;;;;;;61.30;25.30;;;;;;;;;;5055266;28;20208;-43
2022/11/21 00:13:18;;;;;;;66.87;25.10;;;;;;;;;;5055625;28;20219;-41
2022/11/21 00:15:46;;;;;;;157.43;85.17;;;;;;;;;;5055374;28;20200;-41
2022/11/21 00:18:13;;;;;;;94.47;55.30;;;;;;;;;;5055173;28;20519;-41
2022/11/21 00:20:41;;;;;;;66.27;29.17;;;;;;;;;;5055153;28;20641;-41
2022/11/21 00:23:08;;;;;;;90.70;31.33;;;;;;;;;;5055177;28;20274;-41
2022/11/21 00:25:36;;;;;;;79.37;29.27;;;;;;;;;;5055472;28;20200;-41
2022/11/21 00:28:03;;;;;;;98.17;32.13;;;;;;;;;;5055253;28;20273;-41
2022/11/21 00:30:30;;;;;;;68.27;25.77;;;;;;;;;;5054937;28;20212;-41
2022/11/21 00:32:57;;;;;;;67.47;27.83;;;;;;;;;;5054749;28;20215;-42
2022/11/21 00:35:25;;;;;;;67.70;25.03;;;;;;;;;;5054941;28;20630;-41
2022/11/21 00:37:52;;;;;;;66.23;25.70;;;;;;;;;;5055437;28;20200;-42
2022/11/21 00:40:19;;;;;;;62.13;25.00;;;;;;;;;;5055036;28;20208;-41
2022/11/21 00:42:46;;;;;;;78.10;29.80;;;;;;;;;;5054894;28;20624;-41
2022/11/21 00:45:13;;;;;;;132.33;79.70;;;;;;;;;;5054873;28;20200;-41
2022/11/21 00:47:46;;;;;;;65.70;29.50;;;;;;;;;;5055062;28;20217;-41
2022/11/21 00:50:13;;;;;;;55.43;24.53;;;;;;;;;;5054875;28;20199;-41
2022/11/21 00:52:40;;;;;;;56.30;23.23;;;;;;;;;;5054607;28;20255;-41
2022/11/21 00:55:08;;;;;;;62.00;24.40;;;;;;;;;;5054514;28;20667;-41
2022/11/21 00:57:34;;;;;;;57.43;24.83;;;;;;;;;;5054820;28;20204;-41
2022/11/21 01:00:03;;;;;;;152.03;65.13;;;;;;;;;;5054443;28;20208;-42
2022/11/21 01:02:31;;;;;;;157.10;96.27;;;;;;;;;;5054520;28;20222;-41
2022/11/21 01:04:58;;;;;;;68.03;26.73;;;;;;;;;;5053602;28;20675;-41
2022/11/21 01:07:24;;;;;;;57.73;24.63;;;;;;;;;;5054629;28;20539;-41
2022/11/21 01:09:52;;;;;;;53.17;23.00;;;;;;;;;;5054429;28;20250;-41
2022/11/21 01:12:19;;;;;;;72.57;32.60;;;;;;;;;;5054509;28;20311;-41
2022/11/21 01:14:46;;;;;;;72.17;39.30;;;;;;;;;;5055400;28;20669;-41
2022/11/21 01:17:13;;;;;;;79.43;33.73;;;;;;;;;;5058830;28;20204;-41
2022/11/21 01:19:40;;;;;;;66.00;25.53;;;;;;;;;;5058917;28;20581;-41
2022/11/21 01:22:07;;;;;;;64.30;25.17;;;;;;;;;;5058263;28;20212;-41
2022/11/21 01:24:34;;;;;;;62.60;23.60;;;;;;;;;;5058517;28;20204;-42
2022/11/21 01:27:01;;;;;;;69.30;24.80;;;;;;;;;;5058081;28;20269;-41
2022/11/21 01:29:28;;;;;;;63.20;25.30;;;;;;;;;;5058400;28;20269;-41
2022/11/21 01:31:55;;;;;;;64.60;24.57;;;;;;;;;;5058074;28;20232;-41
2022/11/21 01:34:22;;;;;;;50.17;21.00;;;;;;;;;;5058509;28;20208;-42
2022/11/21 01:36:49;;;;;;;62.03;24.20;;;;;;;;;;5057737;28;20196;-41
2022/11/21 01:39:16;;;;;;;53.53;22.13;;;;;;;;;;5058313;28;20192;-42
2022/11/21 01:41:44;;;;;;;146.63;83.73;;;;;;;;;;5058126;28;20216;-41
2022/11/21 01:44:18;;;;;;;64.47;35.93;;;;;;;;;;5057805;28;20207;-43
2022/11/21 01:46:46;;;;;;;55.40;25.93;;;;;;;;;;5057789;28;20188;-41
2022/11/21 01:49:16;;;;;;;80.00;26.57;;;;;;;;;;5058274;28;20269;-42
2022/11/21 01:51:51;;;;;;;94.70;31.07;;;;;;;;;;5056831;28;20220;-43
2022/11/21 01:54:30;;;;;;;60.33;23.77;;;;;;;;;;5057654;28;20204;-41
2022/11/21 01:57:02;;;;;;;48.03;21.83;;;;;;;;;;5057226;28;20563;-42
2022/11/21 01:59:36;;;;;;;59.77;22.67;;;;;;;;;;5056905;28;20196;-42
2022/11/21 02:02:06;;;;;;;53.53;21.40;;;;;;;;;;5057870;28;20211;-46
2022/11/21 02:04:34;;;;;;;43.87;18.90;;;;;;;;;;5057484;28;20204;-42
2022/11/21 02:07:03;;;;;;;52.93;22.33;;;;;;;;;;5057438;28;20206;-41
2022/11/21 02:09:32;;;;;;;118.90;49.13;;;;;;;;;;5057660;28;20243;-41
2022/11/21 02:12:01;;;;;;;188.00;118.33;;;;;;;;;;5056663;28;20281;-42
2022/11/21 02:14:29;;;;;;;68.53;31.40;;;;;;;;;;5056623;28;20204;-41
2022/11/21 02:16:57;;;;;;;91.43;42.13;;;;;;;;;;5056303;28;20540;-43
2022/11/21 02:19:57;;;;;;;84.57;31.53;;;;;;;;;;5057430;28;20211;-41
2022/11/21 02:22:39;;;;;;;65.70;25.83;;;;;;;;;;5053200;28;20203;-41
2022/11/21 02:25:16;;;;;;;53.97;22.27;;;;;;;;;;5057458;28;20184;-42
2022/11/21 02:27:43;;;;;;;53.73;23.17;;;;;;;;;;5056844;28;20283;-41
2022/11/21 02:30:10;;;;;;;61.93;24.10;;;;;;;;;;5056168;28;20204;-41
2022/11/21 02:32:40;;;;;;;58.20;24.27;;;;;;;;;;5057057;28;20255;-41
2022/11/21 02:35:08;;;;;;;64.80;24.83;;;;;;;;;;5057228;28;20212;-41
2022/11/21 02:37:35;;;;;;;62.40;25.13;;;;;;;;;;5057169;28;20311;-41
2022/11/21 02:40:09;;;;;;;120.33;67.53;;;;;;;;;;5056250;28;20212;-41
2022/11/21 02:42:45;;;;;;;82.53;39.77;;;;;;;;;;5055912;28;20609;-41
2022/11/21 02:45:29;;;;;;;68.67;28.10;;;;;;;;;;5057108;28;20200;-43
2022/11/21 02:47:56;;;;;;;111.20;33.07;;;;;;;;;;5056884;28;20200;-43
2022/11/21 02:50:32;;;;;;;112.10;35.43;;;;;;;;;;5057107;28;20203;-44
2022/11/21 02:52:59;;;;;;;82.87;29.47;;;;;;;;;;5056372;28;20238;-42
2022/11/21 02:55:26;;;;;;;58.53;24.73;;;;;;;;;;5056642;28;20621;-43
2022/11/21 02:57:53;;;;;;;54.67;23.87;;;;;;;;;;5056468;28;20200;-44
2022/11/21 03:00:21;;;;;;;68.47;25.47;;;;;;;;;;5056878;28;20258;-42
2022/11/21 03:02:47;;;;;;;63.00;25.77;;;;;;;;;;5056667;28;20283;-42
2022/11/21 03:05:16;;;;;;;89.73;29.47;;;;;;;;;;5056601;28;20204;-42
2022/11/21 03:07:43;;;;;;;468.07;183.40;;;;;;;;;;5056065;28;20211;-42
2022/11/21 03:10:11;;;;;;;451.60;268.83;;;;;;;;;;5056735;28;20204;-42
2022/11/21 03:12:39;;;;;;;79.37;40.50;;;;;;;;;;5056113;28;20694;-43
2022/11/21 03:15:09;;;;;;;65.80;28.53;;;;;;;;;;5056412;28;20203;-43
2022/11/21 03:17:36;;;;;;;105.17;32.33;;;;;;;;;;5056121;28;20208;-42
2022/11/21 03:20:04;;;;;;;75.40;28.50;;;;;;;;;;5056071;28;20633;-43
2022/11/21 03:22:31;;;;;;;60.07;24.20;;;;;;;;;;5055852;28;20210;-43
2022/11/21 03:24:58;;;;;;;66.70;25.23;;;;;;;;;;5055988;28;20680;-41
2022/11/21 03:27:24;;;;;;;84.30;40.67;;;;;;;;;;5038167;28;20200;-41
2022/11/21 03:29:52;;;;;;;80.97;41.60;;;;;;;;;;5056120;28;20234;-41
2022/11/21 03:32:18;;;;;;;62.57;25.43;;;;;;;;;;5055774;28;20231;-41
2022/11/21 03:34:46;;;;;;;56.77;24.27;;;;;;;;;;5055865;28;20200;-42
2022/11/21 03:37:13;;;;;;;375.23;165.50;;;;;;;;;;5055389;28;20203;-42
2022/11/21 03:39:40;;;;;;;99.37;49.87;;;;;;;;;;5056234;28;20518;-41
2022/11/21 03:42:07;;;;;;;64.20;27.40;;;;;;;;;;5055580;28;20212;-42
2022/11/21 03:44:34;;;;;;;71.30;26.17;;;;;;;;;;5055843;28;20213;-42
2022/11/21 03:47:00;;;;;;;78.37;28.00;;;;;;;;;;5055625;28;20617;-41
2022/11/21 03:49:28;;;;;;;68.20;25.47;;;;;;;;;;5055857;28;20537;-41
2022/11/21 03:51:54;;;;;;;71.83;28.10;;;;;;;;;;5055854;28;20235;-42
2022/11/21 03:54:21;;;;;;;64.27;26.33;;;;;;;;;;5040644;28;20201;-42
2022/11/21 03:56:48;;;;;;;59.80;23.53;;;;;;;;;;5035962;28;20201;-41
2022/11/21 03:59:15;;;;;;;59.67;25.27;;;;;;;;;;5035708;28;20205;-42
2022/11/21 04:01:42;;;;;;;58.77;24.30;;;;;;;;;;5036145;28;20204;-45
2022/11/21 04:04:09;;;;;;;56.67;24.90;;;;;;;;;;5035290;28;20205;-43
2022/11/21 04:06:36;;;;;;;65.10;30.87;;;;;;;;;;5035522;28;20201;-43
2022/11/21 04:09:04;;;;;;;59.43;28.70;;;;;;;;;;5035137;28;20237;-41
2022/11/21 04:11:30;;;;;;;61.20;24.57;;;;;;;;;;5035304;28;20204;-42
2022/11/21 04:13:57;;;;;;;63.90;25.13;;;;;;;;;;5035448;28;20205;-41
2022/11/21 04:16:24;;;;;;;61.83;25.73;;;;;;;;;;5035258;28;20207;-41
2022/11/21 04:18:51;;;;;;;80.23;28.10;;;;;;;;;;5035294;28;20201;-42
2022/11/21 04:21:18;;;;;;;64.53;23.97;;;;;;;;;;5035211;28;20208;-41
2022/11/21 04:23:45;;;;;;;58.87;24.30;;;;;;;;;;5035252;28;20205;-42
2022/11/21 04:26:12;;;;;;;58.63;23.77;;;;;;;;;;5035019;28;20263;-41
2022/11/21 04:28:39;;;;;;;59.67;23.47;;;;;;;;;;5046637;28;20289;-45
2022/11/21 04:31:07;;;;;;;61.87;27.10;;;;;;;;;;5035828;28;20200;-41
2022/11/21 04:33:38;;;;;;;67.50;26.43;;;;;;;;;;5037881;28;20220;-41
2022/11/21 04:36:08;;;;;;;110.53;53.37;;;;;;;;;;5055132;28;20211;-41
2022/11/21 04:38:36;;;;;;;78.50;37.30;;;;;;;;;;5052517;28;20238;-41
2022/11/21 04:41:03;;;;;;;65.30;28.57;;;;;;;;;;5033886;28;20672;-41
2022/11/21 04:43:30;;;;;;;72.10;29.33;;;;;;;;;;5034724;28;20231;-42
2022/11/21 04:45:57;;;;;;;70.03;31.00;;;;;;;;;;5035150;28;20223;-42
2022/11/21 04:48:24;;;;;;;66.77;29.43;;;;;;;;;;5050619;28;20200;-41
2022/11/21 04:50:51;;;;;;;69.07;31.03;;;;;;;;;;5054828;28;20200;-42
2022/11/21 04:53:18;;;;;;;66.10;29.97;;;;;;;;;;5054702;28;20232;-43
2022/11/21 04:55:45;;;;;;;66.03;30.50;;;;;;;;;;5053074;28;20618;-45
2022/11/21 04:58:12;;;;;;;95.90;46.77;;;;;;;;;;5051583;28;20200;-41
2022/11/21 05:00:39;;;;;;;95.97;43.67;;;;;;;;;;5051122;28;20234;-41
2022/11/21 05:03:06;;;;;;;80.97;36.43;;;;;;;;;;5053046;28;20223;-42
2022/11/21 05:05:33;;;;;;;94.17;45.30;;;;;;;;;;5053561;28;20303;-43
2022/11/21 05:08:00;;;;;;;76.30;36.77;;;;;;;;;;5053775;28;20220;-41
2022/11/21 05:10:27;;;;;;;70.03;32.27;;;;;;;;;;5053343;28;20220;-42
2022/11/21 05:15:44;;;;;;;86.77;33.63;;;;;;;;;;5033484;28;20231;-41
2022/11/21 05:18:11;;;;;;;76.20;31.17;;;;;;;;;;5034161;28;20224;-41
2022/11/21 05:20:38;;;;;;;78.77;33.37;;;;;;;;;;5033581;28;20220;-42
2022/11/21 05:23:05;;;;;;;80.20;33.40;;;;;;;;;;5033663;28;20224;-41
2022/11/21 05:25:32;;;;;;;80.60;33.97;;;;;;;;;;5033359;28;20252;-42
2022/11/21 05:27:59;;;;;;;83.70;33.73;;;;;;;;;;5033547;28;20235;-43
2022/11/21 05:30:26;;;;;;;134.20;42.00;;;;;;;;;;5033478;28;20263;-42
2022/11/21 05:32:53;;;;;;;192.77;114.97;;;;;;;;;;5033465;28;20240;-42
2022/11/21 05:35:19;;;;;;;98.03;54.47;;;;;;;;;;5033164;28;20260;-42
2022/11/21 05:37:46;;;;;;;67.23;32.13;;;;;;;;;;5033501;28;20221;-45
2022/11/21 05:40:13;;;;;;;154.47;50.70;;;;;;;;;;5033290;28;20229;-43
2022/11/21 05:45:26;;;;;;;80.60;33.87;;;;;;;;;;5033009;28;20359;-42
2022/11/21 05:47:53;;;;;;;81.30;33.60;;;;;;;;;;5033035;28;20312;-44
2022/11/21 05:50:20;;;;;;;107.20;40.37;;;;;;;;;;5031470;28;20228;-45
2022/11/21 05:52:47;;;;;;;83.30;34.43;;;;;;;;;;5030485;28;20235;-42
2022/11/21 05:55:14;;;;;;;78.57;30.90;;;;;;;;;;5032848;28;20260;-42
2022/11/21 05:57:41;;;;;;;86.10;30.50;;;;;;;;;;5032278;28;20224;-45
2022/11/21 06:00:08;;;;;;;97.07;36.67;;;;;;;;;;5031976;28;20318;-43
2022/11/21 06:05:21;;;;;;;66.90;28.27;;;;;;;;;;5035876;28;20688;-43
2022/11/21 06:07:48;;;;;;;92.37;36.73;;;;;;;;;;5035761;28;20224;-43
2022/11/21 06:10:16;;;;;;;140.57;44.83;;;;;;;;;;5036014;28;20216;-42
2022/11/21 06:12:43;;;;;;;129.50;41.60;;;;;;;;;;5035312;28;20236;-42
2022/11/21 06:15:10;;;;;;;106.60;38.33;;;;;;;;;;5036383;28;20770;-42
2022/11/21 06:17:37;;;;;;;80.77;31.27;;;;;;;;;;5049999;28;20216;-41
2022/11/21 06:20:05;;;;;;;56.70;26.40;;;;;;;;;;5038850;28;20568;-42
2022/11/21 06:22:32;;;;;;;66.67;27.87;;;;;;;;;;5056184;28;20269;-42
2022/11/21 06:24:59;;;;;;;62.60;26.27;;;;;;;;;;5055832;28;20204;-45
2022/11/21 06:27:28;;;;;;;67.80;26.80;;;;;;;;;;5056499;28;20219;-41
2022/11/21 06:29:54;;;;;;;198.67;92.33;;;;;;;;;;5056923;28;20207;-45
2022/11/21 06:32:21;;;;;;;100.80;46.03;;;;;;;;;;5057160;28;20215;-46
2022/11/21 06:34:48;;;;;;;86.83;41.23;;;;;;;;;;5056934;28;20283;-41
2022/11/21 06:37:15;;;;;;;94.97;36.23;;;;;;;;;;5056890;28;20228;-41
2022/11/21 06:39:42;;;;;;;99.20;39.17;;;;;;;;;;5056857;28;20636;-42
2022/11/21 06:42:09;;;;;;;74.63;31.63;;;;;;;;;;5056817;28;20633;-42
2022/11/21 06:44:36;;;;;;;81.03;31.87;;;;;;;;;;5057072;28;20519;-41
2022/11/21 06:47:03;;;;;;;69.83;29.83;;;;;;;;;;5056965;28;20200;-41
2022/11/21 06:49:30;;;;;;;74.37;31.67;;;;;;;;;;5056801;28;20544;-41
2022/11/21 06:51:57;;;;;;;64.60;28.90;;;;;;;;;;5056613;28;20200;-41
2022/11/21 06:54:23;;;;;;;70.40;29.43;;;;;;;;;;5056776;28;20228;-41
2022/11/21 06:56:51;;;;;;;124.30;61.03;;;;;;;;;;5056811;28;20203;-42
2022/11/21 06:59:17;;;;;;;87.53;46.57;;;;;;;;;;5056765;28;20253;-41
2022/11/21 07:01:45;;;;;;;77.00;38.80;;;;;;;;;;5056470;28;20215;-41
2022/11/21 07:04:11;;;;;;;72.33;32.43;;;;;;;;;;5056548;28;20212;-42
2022/11/21 07:06:38;;;;;;;83.47;33.70;;;;;;;;;;5056914;28;20215;-41
2022/11/21 07:09:05;;;;;;;81.10;31.27;;;;;;;;;;5056535;28;20609;-41
2022/11/21 07:11:52;;;;;;;71.67;29.70;;;;;;;;;;5056336;28;20203;-42
2022/11/21 07:14:19;;;;;;;86.40;33.73;;;;;;;;;;5055844;28;20239;-43
2022/11/21 07:16:46;;;;;;;59.33;27.90;;;;;;;;;;5056402;28;20210;-42
2022/11/21 07:19:13;;;;;;;64.87;28.43;;;;;;;;;;5056284;28;20206;-42
2022/11/21 07:21:41;;;;;;;67.10;26.70;;;;;;;;;;5056168;28;20203;-41
2022/11/21 07:24:08;;;;;;;86.07;32.33;;;;;;;;;;5055266;28;20633;-42
2022/11/21 07:26:35;;;;;;;103.63;40.43;;;;;;;;;;5055974;28;20204;-41
2022/11/21 07:29:02;;;;;;;80.40;38.90;;;;;;;;;;5055969;28;20199;-42
2022/11/21 07:31:30;;;;;;;87.70;40.70;;;;;;;;;;5056042;28;20200;-41
2022/11/21 07:33:57;;;;;;;83.60;34.90;;;;;;;;;;5055716;28;20696;-41
2022/11/21 07:36:24;;;;;;;76.37;31.70;;;;;;;;;;5055963;28;20286;-42
2022/11/21 07:38:51;;;;;;;73.00;30.27;;;;;;;;;;5055875;28;20215;-42
2022/11/21 07:41:18;;;;;;;65.20;29.20;;;;;;;;;;5055690;28;20519;-41
2022/11/21 07:43:45;;;;;;;63.60;28.40;;;;;;;;;;5055892;28;20200;-41
2022/11/21 07:46:12;;;;;;;66.47;29.53;;;;;;;;;;5055758;28;20266;-41
2022/11/21 07:48:39;;;;;;;69.33;29.90;;;;;;;;;;5055725;28;20290;-41
2022/11/21 07:51:06;;;;;;;73.80;31.10;;;;;;;;;;5055689;28;20211;-41
2022/11/21 07:53:33;;;;;;;70.53;29.77;;;;;;;;;;5055787;28;20270;-42
2022/11/21 07:56:00;;;;;;;93.70;52.73;;;;;;;;;;5055624;28;20204;-42
2022/11/21 07:58:27;;;;;;;78.33;35.30;;;;;;;;;;5055578;28;20208;-41
2022/11/21 08:00:54;;;;;;;74.13;32.83;;;;;;;;;;5055331;28;20201;-42
2022/11/21 08:03:21;;;;;;;132.70;44.07;;;;;;;;;;5056275;28;20212;-44
2022/11/21 08:05:48;;;;;;;84.47;32.37;;;;;;;;;;5055348;28;20208;-41
2022/11/21 08:08:15;;;;;;;72.70;31.13;;;;;;;;;;5055350;28;20246;-41
2022/11/21 08:10:44;;;;;;;82.97;35.13;;;;;;;;;;5055229;28;20276;-41
2022/11/21 08:13:11;;;;;;;85.87;34.70;;;;;;;;;;5055217;28;20245;-43
2022/11/21 08:15:39;;;;;;;83.73;35.07;;;;;;;;;;5055335;28;20204;-42
2022/11/21 08:18:18;;;;;;;72.23;32.70;;;;;;;;;;5055250;28;20200;-42
2022/11/21 08:20:46;;;;;;;85.20;33.23;;;;;;;;;;5055003;28;20204;-41
2022/11/21 08:23:12;;;;;;;121.27;55.90;;;;;;;;;;5054986;28;20642;-41
2022/11/21 08:25:40;;;;;;;109.70;60.57;;;;;;;;;;5053466;28;20520;-42
2022/11/21 08:28:09;;;;;;;82.93;40.70;;;;;;;;;;5054876;28;20226;-42
2022/11/21 08:30:36;;;;;;;77.93;34.43;;;;;;;;;;5055074;28;20207;-41
2022/11/21 08:33:03;;;;;;;73.90;33.27;;;;;;;;;;5054363;28;22096;-41
2022/11/21 08:35:30;;;;;;;95.53;36.73;;;;;;;;;;5054875;28;20208;-41
2022/11/21 08:37:58;;;;;;;98.50;37.67;;;;;;;;;;5054963;28;20207;-43
2022/11/21 08:40:27;;;;;;;80.97;34.60;;;;;;;;;;5054839;28;20215;-42
2022/11/21 08:43:01;;;;;;;80.60;34.60;;;;;;;;;;5054945;28;20200;-42
2022/11/21 08:45:29;;;;;;;73.33;32.70;;;;;;;;;;5054630;28;20214;-43
2022/11/21 08:47:55;;;;;;;92.60;36.20;;;;;;;;;;5055275;28;20204;-41
2022/11/21 08:50:23;;;;;;;85.83;37.07;;;;;;;;;;5055088;28;20234;-41
2022/11/21 08:52:50;;;;;;;79.33;36.23;;;;;;;;;;5055522;28;20199;-41
2022/11/21 08:55:17;;;;;;;138.17;76.37;;;;;;;;;;5054407;28;20211;-42
2022/11/21 08:57:44;;;;;;;87.13;48.23;;;;;;;;;;5054700;28;20200;-41
2022/11/21 09:00:12;;;;;;;81.90;39.43;;;;;;;;;;5054483;28;20203;-41
2022/11/21 09:02:39;;;;;;;122.77;44.70;;;;;;;;;;5054693;28;20397;-42
2022/11/21 09:05:07;;;;;;;101.03;38.30;;;;;;;;;;5054507;28;20295;-42
2022/11/21 09:07:34;;;;;;;73.73;32.00;;;;;;;;;;5053889;28;20231;-43
2022/11/21 09:10:02;;;;;;;69.23;30.30;;;;;;;;;;5054952;28;20714;-41
2022/11/21 09:12:29;;;;;;;70.67;30.83;;;;;;;;;;5054913;28;20215;-41
2022/11/21 09:20:27;;;;;;;64.80;28.57;;;;;;;;;;5054076;28;20200;-41
2022/11/21 09:22:54;;;;;;;78.07;34.40;;;;;;;;;;5054570;28;20210;-41
2022/11/21 09:25:22;;;;;;;193.47;103.73;;;;;;;;;;5054470;28;20273;-41
2022/11/21 09:27:48;;;;;;;95.50;52.07;;;;;;;;;;5054250;28;20643;-41
2022/11/21 09:30:16;;;;;;;58.50;29.77;;;;;;;;;;5054302;28;20539;-41
2022/11/21 09:32:42;;;;;;;60.27;30.00;;;;;;;;;;5054369;28;20208;-41
2022/11/21 09:35:10;;;;;;;75.37;32.30;;;;;;;;;;5054815;28;20553;-41
2022/11/21 09:37:37;;;;;;;114.97;41.23;;;;;;;;;;5058177;28;20283;-42
2022/11/21 09:40:04;;;;;;;71.10;32.17;;;;;;;;;;5058104;28;20213;-42
2022/11/21 09:42:56;;;;;;;72.57;32.93;;;;;;;;;;5057966;28;20613;-42
2022/11/21 09:45:36;;;;;;;182.87;54.30;;;;;;;;;;5057085;28;20196;-41
2022/11/21 09:48:08;;;;;;;178.17;55.77;;;;;;;;;;5057319;28;20728;-41
2022/11/21 09:50:42;;;;;;;156.13;49.93;;;;;;;;;;5041068;28;20250;-41
2022/11/21 09:53:14;;;;;;;231.10;84.40;;;;;;;;;;5057955;28;20265;-41
2022/11/21 09:55:48;;;;;;;95.50;58.07;;;;;;;;;;5057194;28;20223;-41
2022/11/21 09:58:27;;;;;;;89.20;50.77;;;;;;;;;;5057126;28;20200;-41
2022/11/21 10:00:54;;;;;;;100.00;39.37;;;;;;;;;;5057672;28;20204;-42
2022/11/21 10:03:24;;;;;;;78.23;32.70;;;;;;;;;;5056983;28;20200;-45
2022/11/21 10:05:59;;;;;;;69.57;30.73;;;;;;;;;;5057567;28;20192;-43
2022/11/21 10:08:45;;;;;;;71.47;32.93;;;;;;;;;;5056972;28;20246;-41
2022/11/21 10:12:35;;;;;;;129.53;52.80;;;;;;;;;;5056889;28;20219;-42
2022/11/21 10:14:34;;;;;;;99.83;43.83;;;;;;;;;;5057124;28;20252;-42
2022/11/21 10:17:23;;;;;;;82.80;36.67;;;;;;;;;;5057546;28;20203;-42
2022/11/21 10:20:02;;;;;;;72.83;33.77;;;;;;;;;;5057565;28;20204;-41
2022/11/21 10:22:43;;;;;;;124.67;55.77;;;;;;;;;;5056436;28;20219;-42
2022/11/21 10:25:14;;;;;;;97.07;49.70;;;;;;;;;;5056969;28;20216;-42
2022/11/21 10:27:52;;;;;;;101.50;46.87;;;;;;;;;;5056445;28;20628;-42
2022/11/21 10:30:20;;;;;;;133.90;47.07;;;;;;;;;;5057128;28;20251;-41
2022/11/21 10:32:56;;;;;;;148.47;58.40;;;;;;;;;;5057229;28;20258;-41
2022/11/21 10:35:39;;;;;;;98.13;41.00;;;;;;;;;;5056071;28;20219;-41
2022/11/21 10:38:19;;;;;;;105.10;43.67;;;;;;;;;;5057260;28;20485;-41
2022/11/21 10:40:51;;;;;;;87.17;37.20;;;;;;;;;;5056918;28;20682;-42
2022/11/21 10:46:25;;;;;;;88.87;36.77;;;;;;;;;;5056008;28;20253;-41
2022/11/21 10:48:56;;;;;;;83.13;37.27;;;;;;;;;;5056281;28;20219;-42
2022/11/21 10:51:37;;;;;;;132.70;55.03;;;;;;;;;;5055815;28;20204;-41
2022/11/21 10:57:04;;;;;;;106.20;46.93;;;;;;;;;;5056697;28;20262;-41
2022/11/21 10:59:32;;;;;;;83.57;40.80;;;;;;;;;;5055749;28;20214;-41
2022/11/21 11:02:20;;;;;;;97.67;45.13;;;;;;;;;;5056425;28;20291;-42
2022/11/21 11:04:47;;;;;;;78.37;34.67;;;;;;;;;;5056556;28;20234;-41
2022/11/21 11:07:24;;;;;;;63.23;30.33;;;;;;;;;;5055722;28;20210;-41
2022/11/21 11:09:52;;;;;;;75.43;32.30;;;;;;;;;;5056479;28;20220;-41
2022/11/21 11:15:22;;;;;;;80.90;32.37;;;;;;;;;;5056404;28;20227;-42
2022/11/21 11:17:57;;;;;;;76.93;30.77;;;;;;;;;;5056481;28;20196;-41
2022/11/21 11:20:29;;;;;;;106.17;47.77;;;;;;;;;;5056160;28;20249;-41
2022/11/21 11:22:56;;;;;;;125.43;63.47;;;;;;;;;;5056226;28;20214;-41
2022/11/21 11:25:23;;;;;;;105.10;52.10;;;;;;;;;;5056356;28;20207;-41
2022/11/21 11:27:50;;;;;;;73.83;35.87;;;;;;;;;;5055902;28;20200;-41
2022/11/21 11:30:18;;;;;;;92.23;42.43;;;;;;;;;;5038177;28;20200;-42
2022/11/21 11:32:45;;;;;;;65.00;32.53;;;;;;;;;;5056095;28;20246;-42
2022/11/21 11:35:12;;;;;;;67.70;33.33;;;;;;;;;;5055784;28;20691;-41
2022/11/21 11:37:40;;;;;;;96.47;46.47;;;;;;;;;;5055853;28;20211;-42
2022/11/21 11:40:29;;;;;;;79.10;34.80;;;;;;;;;;5055865;28;20196;-41
2022/11/21 11:49:30;;;;;;;63.97;28.97;;;;;;;;;;5057047;28;20492;-41
2022/11/21 11:52:03;;;;;;;59.13;28.20;;;;;;;;;;5055029;28;20192;-41
2022/11/21 11:54:47;;;;;;;63.90;28.60;;;;;;;;;;5055373;28;20228;-41
2022/11/21 11:57:15;;;;;;;53.07;24.73;;;;;;;;;;5054635;28;20554;-41
2022/11/21 11:59:49;;;;;;;101.17;36.27;;;;;;;;;;5055364;28;20211;-41
2022/11/21 12:02:16;;;;;;;134.93;41.30;;;;;;;;;;5054577;28;20204;-41
2022/11/21 12:04:47;;;;;;;98.80;36.63;;;;;;;;;;5055693;28;20203;-41
2022/11/21 12:07:19;;;;;;;299.87;80.73;;;;;;;;;;5055295;28;20197;-42
2022/11/21 12:10:34;;;;;;;102.43;33.70;;;;;;;;;;5054296;28;20243;-41
2022/11/21 12:13:07;;;;;;;70.57;29.03;;;;;;;;;;5055526;28;20225;-41
2022/11/21 12:15:48;;;;;;;75.50;26.80;;;;;;;;;;5054385;28;20224;-41
2022/11/21 12:18:21;;;;;;;81.10;34.87;;;;;;;;;;5054625;28;20191;-41
2022/11/21 12:21:06;;;;;;;150.53;78.33;;;;;;;;;;5055007;28;20632;-41
2022/11/21 12:23:36;;;;;;;119.40;55.87;;;;;;;;;;5054228;28;20617;-41
2022/11/21 12:26:06;;;;;;;126.63;50.63;;;;;;;;;;5054997;28;20230;-42
2022/11/21 12:28:51;;;;;;;113.20;41.40;;;;;;;;;;5055059;28;20234;-41
2022/11/21 12:31:40;;;;;;;106.00;38.40;;;;;;;;;;5053969;28;20700;-42
2022/11/21 12:34:13;;;;;;;231.17;70.97;;;;;;;;;;5054144;28;20211;-41
2022/11/21 12:36:59;;;;;;;256.50;82.17;;;;;;;;;;5054930;28;20591;-41
2022/11/21 12:39:55;;;;;;;93.40;35.80;;;;;;;;;;5054859;28;20590;-41
2022/11/21 12:42:49;;;;;;;191.40;67.83;;;;;;;;;;5054639;28;20196;-41
2022/11/21 12:45:50;;;;;;;267.43;95.70;;;;;;;;;;5054126;28;20204;-41
2022/11/21 12:54:32;;;;;;;246.50;100.30;;;;;;;;;;5019254;28;20677;-42
2022/11/21 12:57:12;;;;;;;133.47;55.00;;;;;;;;;;5018266;28;20197;-41
2022/11/21 12:59:47;;;;;;;99.00;39.33;;;;;;;;;;5020058;28;20193;-44
2022/11/21 13:02:30;;;;;;;152.00;57.23;;;;;;;;;;5005399;28;20224;-46
2022/11/21 13:04:58;;;;;;;339.67;112.27;;;;;;;;;;5031605;28;20232;-45
2022/11/21 13:07:28;;;;;;;469.20;142.27;;;;;;;;;;5013821;28;20223;-41
2022/11/21 13:09:56;;;;;;;395.23;125.47;;;;;;;;;;5031453;28;20267;-45
2022/11/21 13:12:59;;;;;;;185.73;65.03;;;;;;;;;;5034432;28;20228;-45
2022/11/21 13:15:29;;;;;;;134.07;46.87;;;;;;;;;;5033611;28;20248;-43
2022/11/21 13:18:24;;;;;;;298.87;99.50;;;;;;;;;;5019824;28;20246;-47
2022/11/21 13:20:51;;;;;;;127.47;74.57;;;;;;;;;;5035577;28;20282;-41
2022/11/21 13:23:39;;;;;;;151.03;73.20;;;;;;;;;;5024205;28;20231;-43
2022/11/21 13:26:24;;;;;;;192.60;67.23;;;;;;;;;;5057474;28;20232;-41
2022/11/21 13:29:08;;;;;;;129.47;42.83;;;;;;;;;;5056794;28;20558;-43
2022/11/21 13:31:36;;;;;;;75.63;29.57;;;;;;;;;;5056141;28;20220;-44
2022/11/21 13:34:04;;;;;;;74.67;31.20;;;;;;;;;;5056562;28;20318;-42
2022/11/21 13:36:31;;;;;;;110.43;44.60;;;;;;;;;;5055957;28;20228;-42
2022/11/21 13:38:58;;;;;;;131.40;53.57;;;;;;;;;;5056748;28;20517;-44
2022/11/21 13:44:32;;;;;;;142.20;48.73;;;;;;;;;;5056330;28;20668;-46
2022/11/21 13:47:08;;;;;;;145.67;54.53;;;;;;;;;;5056466;28;20228;-44
2022/11/21 13:50:06;;;;;;;433.47;273.53;;;;;;;;;;5053082;28;20525;-42
2022/11/21 13:52:47;;;;;;;89.53;45.80;;;;;;;;;;5055907;28;20228;-45
2022/11/21 13:55:26;;;;;;;73.97;35.80;;;;;;;;;;5055919;28;20236;-42
2022/11/21 13:58:33;;;;;;;101.33;39.33;;;;;;;;;;5053728;28;20231;-42
2022/11/21 14:01:19;;;;;;;108.27;40.70;;;;;;;;;;5056950;28;20293;-45
2022/11/21 14:03:58;;;;;;;60.77;27.77;;;;;;;;;;5056001;28;20306;-45
2022/11/21 14:06:37;;;;;;;66.23;27.77;;;;;;;;;;5056499;28;20273;-44
2022/11/21 14:09:23;;;;;;;80.63;36.87;;;;;;;;;;5055355;28;20248;-44
2022/11/21 14:12:00;;;;;;;62.10;31.63;;;;;;;;;;5056490;28;20693;-43
2022/11/21 14:14:33;;;;;;;81.30;39.73;;;;;;;;;;5056189;28;20293;-43
2022/11/21 14:17:22;;;;;;;118.80;67.90;;;;;;;;;;5056065;28;20220;-41
2022/11/21 14:19:51;;;;;;;89.87;59.37;;;;;;;;;;5055593;28;20232;-42
2022/11/21 14:22:33;;;;;;;58.87;34.43;;;;;;;;;;5054784;28;20754;-46
2022/11/21 14:25:09;;;;;;;40.57;22.10;;;;;;;;;;5056342;28;20238;-43
2022/11/21 14:27:38;;;;;;;80.97;30.20;;;;;;;;;;5055857;28;20695;-43
2022/11/21 14:30:35;;;;;;;71.43;27.47;;;;;;;;;;5054761;28;20234;-51
2022/11/21 14:33:27;;;;;;;56.77;24.93;;;;;;;;;;5053552;28;20656;-46
2022/11/21 14:35:56;;;;;;;54.27;22.10;;;;;;;;;;5055973;28;20239;-43
2022/11/21 14:38:23;;;;;;;42.67;22.00;;;;;;;;;;5056164;28;20219;-44
2022/11/21 14:40:50;;;;;;;53.17;23.73;;;;;;;;;;5055769;28;20220;-44
2022/11/21 14:43:35;;;;;;;62.20;24.30;;;;;;;;;;5055745;28;20603;-42
2022/11/21 14:46:02;;;;;;;87.70;37.83;;;;;;;;;;5054051;28;20354;-44
2022/11/21 14:48:29;;;;;;;56.23;29.57;;;;;;;;;;5056064;28;20212;-45
2022/11/21 14:50:57;;;;;;;84.17;59.73;;;;;;;;;;5053948;28;20644;-44
2022/11/21 14:53:25;;;;;;;48.97;26.37;;;;;;;;;;5055655;28;20544;-44
2022/11/21 14:55:52;;;;;;;73.40;27.27;;;;;;;;;;5046609;28;20240;-42
2022/11/21 14:58:27;;;;;;;78.20;27.43;;;;;;;;;;5043164;28;20211;-42
2022/11/21 15:01:06;;;;;;;67.57;25.30;;;;;;;;;;5054019;28;20232;-44
2022/11/21 15:03:33;;;;;;;45.70;20.17;;;;;;;;;;5054723;28;20244;-47
2022/11/21 15:06:04;;;;;;;45.53;20.63;;;;;;;;;;5054446;28;20223;-43
2022/11/21 15:08:36;;;;;;;39.47;18.60;;;;;;;;;;5054416;28;20232;-45
2022/11/21 15:11:33;;;;;;;39.60;19.33;;;;;;;;;;5054608;28;20220;-44
2022/11/21 15:14:05;;;;;;;40.57;18.07;;;;;;;;;;5055353;28;20216;-46